sensor_id;sensor_type;location;lat;lon;timestamp;P1;P4;P2;P0;N10;N4;N25;N1;N05;TS
79685;SPS30;69153;47.918;11.428;2023-09-30T00:00:12;18.91;17.84;15.72;12.51;100.13;100.01;99.45;96.33;77.98;0.70
79685;SPS30;69153;47.918;11.428;2023-09-30T00:02:38;18.28;17.25;15.23;12.14;97.19;97.07;96.54;93.55;75.78;0.71
79685;SPS30;69153;47.918;11.428;2023-09-30T00:05:04;18.64;17.54;15.37;12.11;96.93;96.81;96.24;93.05;75.10;0.72
79685;SPS30;69153;47.918;11.428;2023-09-30T00:07:29;18.21;17.10;14.90;11.64;93.17;93.05;92.47;89.26;71.85;0.72
79685;SPS30;69153;47.918;11.428;2023-09-30T00:09:55;17.99;17.02;15.09;12.11;96.93;96.81;96.31;93.43;75.84;0.69
79685;SPS30;69153;47.918;11.428;2023-09-30T00:12:20;17.63;16.66;14.74;11.79;94.36;94.25;93.74;90.88;73.70;0.71
79685;SPS30;69153;47.918;11.428;2023-09-30T00:14:46;18.47;17.34;15.12;11.81;94.58;94.45;93.87;90.62;72.96;0.72
79685;SPS30;69153;47.918;11.428;2023-09-30T00:17:13;17.67;16.76;14.94;12.10;96.84;96.73;96.26;93.53;76.13;0.69
79685;SPS30;69153;47.918;11.428;2023-09-30T00:19:39;18.61;17.49;15.26;11.95;95.64;95.51;94.93;91.67;73.85;0.72
79685;SPS30;69153;47.918;11.428;2023-09-30T00:22:05;18.14;17.13;15.14;12.10;96.82;96.70;96.18;93.23;75.57;0.70
79685;SPS30;69153;47.918;11.428;2023-09-30T00:24:30;17.74;16.64;14.46;11.24;90.03;89.90;89.33;86.16;69.26;0.74
79685;SPS30;69153;47.918;11.428;2023-09-30T00:26:56;18.87;17.71;15.40;11.99;95.98;95.85;95.25;91.89;73.89;0.74
79685;SPS30;69153;47.918;11.428;2023-09-30T00:29:21;17.45;16.49;14.59;11.68;93.45;93.34;92.84;90.02;73.01;0.71
79685;SPS30;69153;47.918;11.428;2023-09-30T00:31:47;18.36;17.29;15.17;11.98;95.90;95.78;95.22;92.11;74.40;0.71
79685;SPS30;69153;47.918;11.428;2023-09-30T00:34:13;17.82;16.71;14.51;11.27;90.26;90.13;89.56;86.36;69.40;0.73
79685;SPS30;69153;47.918;11.428;2023-09-30T00:36:38;17.19;16.25;14.40;11.54;92.39;92.28;91.80;89.04;72.25;0.68
79685;SPS30;69153;47.918;11.428;2023-09-30T00:39:04;17.17;16.24;14.39;11.54;92.35;92.24;91.76;89.00;72.23;0.70
79685;SPS30;69153;47.918;11.428;2023-09-30T00:41:29;16.12;15.30;13.70;11.16;89.30;89.20;88.78;86.35;70.41;0.67
79685;SPS30;69153;47.918;11.428;2023-09-30T00:43:55;18.01;17.02;15.06;12.06;96.49;96.38;95.86;92.95;75.39;0.71
79685;SPS30;69153;47.918;11.428;2023-09-30T00:46:28;16.62;15.72;13.94;11.19;89.56;89.45;88.98;86.33;70.09;0.69
79685;SPS30;69153;47.918;11.428;2023-09-30T00:48:57;16.92;15.94;13.99;11.06;88.50;88.38;87.88;85.01;68.68;0.72
79685;SPS30;69153;47.918;11.428;2023-09-30T00:51:23;16.87;15.97;14.19;11.43;91.47;91.36;90.89;88.24;71.70;0.69
79685;SPS30;69153;47.918;11.428;2023-09-30T00:53:50;16.69;15.82;14.10;11.42;91.35;91.25;90.80;88.22;71.79;0.70
79685;SPS30;69153;47.918;11.428;2023-09-30T00:56:18;17.94;16.80;14.56;11.26;90.17;90.04;89.46;86.20;69.17;0.74
79685;SPS30;69153;47.918;11.428;2023-09-30T00:58:45;18.32;17.14;14.82;11.41;91.41;91.28;90.67;87.31;69.98;0.73
79685;SPS30;69153;47.918;11.428;2023-09-30T01:01:13;18.15;17.05;14.88;11.65;93.28;93.16;92.59;89.42;72.03;0.71
79685;SPS30;69153;47.918;11.428;2023-09-30T01:03:40;16.95;16.03;14.20;11.39;91.13;91.02;90.54;87.82;71.27;0.70
79685;SPS30;69153;47.918;11.428;2023-09-30T01:06:06;17.36;16.43;14.59;11.74;93.94;93.83;93.35;90.60;73.60;0.69
79685;SPS30;69153;47.918;11.428;2023-09-30T01:08:32;18.36;17.24;15.04;11.76;94.17;94.04;93.47;90.25;72.68;0.72
79685;SPS30;69153;47.918;11.428;2023-09-30T01:10:59;17.76;16.77;14.81;11.82;94.64;94.52;94.01;91.11;73.83;0.71
79685;SPS30;69153;47.918;11.428;2023-09-30T01:13:32;16.35;15.50;13.82;11.20;89.61;89.51;89.07;86.55;70.45;0.69
79685;SPS30;69153;47.918;11.428;2023-09-30T01:16:06;17.36;16.36;14.39;11.40;91.26;91.14;90.63;87.71;70.93;0.71
79685;SPS30;69153;47.918;11.428;2023-09-30T01:18:35;16.94;16.05;14.27;11.52;92.17;92.06;91.60;88.94;72.31;0.69
79685;SPS30;69153;47.918;11.428;2023-09-30T01:21:05;16.72;15.83;14.07;11.34;90.73;90.63;90.17;87.54;71.15;0.68
79685;SPS30;69153;47.918;11.428;2023-09-30T01:23:32;16.84;15.97;14.24;11.54;92.37;92.26;91.81;89.22;72.63;0.68
79685;SPS30;69153;47.918;11.428;2023-09-30T01:26:16;17.45;16.48;14.57;11.63;93.10;92.99;92.49;89.65;72.66;0.69
79685;SPS30;69153;47.918;11.428;2023-09-30T01:28:42;17.84;16.78;14.69;11.56;92.55;92.43;91.88;88.81;71.66;0.70
79685;SPS30;69153;47.918;11.428;2023-09-30T01:31:07;17.81;16.85;14.95;12.01;96.14;96.03;95.53;92.69;75.27;0.69
79685;SPS30;69153;47.918;11.428;2023-09-30T01:33:33;18.07;16.97;14.81;11.58;92.74;92.62;92.05;88.89;71.59;0.72
79685;SPS30;69153;47.918;11.428;2023-09-30T01:35:58;18.02;16.98;14.90;11.78;94.30;94.18;93.64;90.59;73.19;0.72
79685;SPS30;69153;47.918;11.428;2023-09-30T01:38:25;17.15;16.26;14.51;11.77;94.18;94.07;93.61;90.98;74.08;0.67
79685;SPS30;69153;47.918;11.428;2023-09-30T01:40:50;17.94;16.92;14.90;11.83;94.69;94.58;94.05;91.06;73.68;0.69
79685;SPS30;69153;47.918;11.428;2023-09-30T01:43:16;17.07;16.17;14.40;11.63;93.09;92.99;92.52;89.86;73.09;0.69
79685;SPS30;69153;47.918;11.428;2023-09-30T01:45:42;16.53;15.69;14.04;11.43;91.42;91.32;90.88;88.39;72.04;0.68
79685;SPS30;69153;47.918;11.428;2023-09-30T01:48:08;17.19;16.31;14.58;11.85;94.83;94.73;94.27;91.66;74.69;0.68
79685;SPS30;69153;47.918;11.428;2023-09-30T01:50:39;18.02;16.98;14.94;11.84;94.77;94.65;94.11;91.10;73.67;0.71
79685;SPS30;69153;47.918;11.428;2023-09-30T01:53:05;17.21;16.31;14.53;11.75;94.04;93.94;93.47;90.80;73.88;0.70
79685;SPS30;69153;47.918;11.428;2023-09-30T01:55:34;17.50;16.51;14.56;11.59;92.74;92.62;92.11;89.22;72.24;0.71
79685;SPS30;69153;47.918;11.428;2023-09-30T01:58:02;18.02;16.84;14.51;11.12;89.05;88.92;88.31;84.95;67.97;0.73
79685;SPS30;69153;47.918;11.428;2023-09-30T02:00:28;17.30;16.30;14.32;11.33;90.67;90.55;90.04;87.12;70.41;0.71
79685;SPS30;69153;47.918;11.428;2023-09-30T02:02:57;16.61;15.72;13.97;11.26;90.08;89.97;89.51;86.90;70.62;0.69
79685;SPS30;69153;47.918;11.428;2023-09-30T02:05:23;17.54;16.61;14.78;11.93;95.50;95.39;94.91;92.17;74.95;0.69
79685;SPS30;69153;47.918;11.428;2023-09-30T02:07:49;17.26;16.36;14.57;11.79;94.36;94.25;93.78;91.11;74.13;0.68
79685;SPS30;69153;47.918;11.428;2023-09-30T02:10:16;17.23;16.29;14.45;11.60;92.81;92.70;92.21;89.46;72.62;0.70
79685;SPS30;69153;47.918;11.428;2023-09-30T02:12:43;17.32;16.33;14.36;11.38;91.08;90.97;90.45;87.55;70.79;0.71
79685;SPS30;69153;47.918;11.428;2023-09-30T02:15:09;16.72;15.86;14.16;11.49;91.92;91.82;91.37;88.81;72.32;0.69
79685;SPS30;69153;47.918;11.428;2023-09-30T02:17:35;16.60;15.66;13.80;10.98;87.91;87.80;87.31;84.57;68.47;0.70
79685;SPS30;69153;47.918;11.428;2023-09-30T02:20:01;15.88;14.98;13.18;10.46;83.71;83.61;83.14;80.49;65.11;0.70
79685;SPS30;69153;47.918;11.428;2023-09-30T02:22:30;16.11;15.14;13.22;10.37;82.99;82.88;82.38;79.58;64.14;0.72
79685;SPS30;69153;47.918;11.428;2023-09-30T02:24:56;16.43;15.48;13.59;10.74;85.97;85.87;85.37;82.59;66.73;0.71
79685;SPS30;69153;47.918;11.428;2023-09-30T02:27:21;16.30;15.38;13.55;10.77;86.19;86.09;85.61;82.90;67.10;0.70
79685;SPS30;69153;47.918;11.428;2023-09-30T02:29:47;15.98;15.04;13.18;10.39;83.17;83.07;82.58;79.85;64.47;0.71
79685;SPS30;69153;47.918;11.428;2023-09-30T02:32:12;15.73;14.87;13.15;10.53;84.24;84.14;83.69;81.14;65.81;0.70
79685;SPS30;69153;47.918;11.428;2023-09-30T02:34:39;15.04;14.27;12.75;10.36;82.89;82.80;82.40;80.11;65.26;0.68
79685;SPS30;69153;47.918;11.428;2023-09-30T02:37:04;16.64;15.61;13.57;10.55;84.49;84.38;83.84;80.87;65.01;0.73
79685;SPS30;69153;47.918;11.428;2023-09-30T02:39:30;16.87;15.75;13.55;10.36;82.96;82.84;82.27;79.09;63.23;0.75
79685;SPS30;69153;47.918;11.428;2023-09-30T02:41:55;17.46;16.28;13.93;10.55;84.52;84.39;83.78;80.41;64.10;0.75
79685;SPS30;69153;47.918;11.428;2023-09-30T02:44:22;16.92;15.84;13.69;10.54;84.43;84.31;83.75;80.63;64.63;0.73
79685;SPS30;69153;47.918;11.428;2023-09-30T02:46:47;17.08;15.95;13.73;10.50;84.11;83.98;83.41;80.20;64.13;0.74
79685;SPS30;69153;47.918;11.428;2023-09-30T02:49:12;16.90;15.81;13.66;10.51;84.20;84.07;83.51;80.40;64.42;0.73
79685;SPS30;69153;47.918;11.428;2023-09-30T02:51:38;15.75;14.78;12.85;9.99;80.01;79.90;79.39;76.58;61.57;0.72
79685;SPS30;69153;47.918;11.428;2023-09-30T02:54:03;15.30;14.45;12.78;10.22;81.77;81.67;81.23;78.75;63.85;0.71
79685;SPS30;69153;47.918;11.428;2023-09-30T02:56:29;15.81;14.83;12.90;10.04;80.36;80.25;79.74;76.93;61.85;0.72
79685;SPS30;69153;47.918;11.428;2023-09-30T02:58:56;15.28;14.40;12.67;10.04;80.36;80.26;79.81;77.25;62.47;0.71
79685;SPS30;69153;47.918;11.428;2023-09-30T03:01:21;15.31;14.43;12.69;10.07;80.58;80.48;80.02;77.46;62.65;0.70
79685;SPS30;69153;47.918;11.428;2023-09-30T03:03:47;16.52;15.49;13.44;10.42;83.43;83.31;82.78;79.80;64.09;0.73
79685;SPS30;69153;47.918;11.428;2023-09-30T03:06:12;15.50;14.52;12.57;9.72;77.85;77.74;77.24;74.42;59.72;0.72
79685;SPS30;69153;47.918;11.428;2023-09-30T03:08:38;16.34;15.36;13.41;10.51;84.13;84.01;83.51;80.66;64.99;0.71
79685;SPS30;69153;47.918;11.428;2023-09-30T03:11:03;17.74;16.55;14.21;10.82;86.65;86.52;85.91;82.54;65.90;0.75
79685;SPS30;69153;47.918;11.428;2023-09-30T03:13:32;16.55;15.58;13.67;10.79;86.37;86.26;85.76;82.95;66.99;0.70
79685;SPS30;69153;47.918;11.428;2023-09-30T03:15:58;16.68;15.70;13.77;10.87;87.03;86.91;86.41;83.57;67.50;0.72
79685;SPS30;69153;47.918;11.428;2023-09-30T03:18:23;15.47;14.67;13.08;10.60;84.80;84.70;84.29;81.90;66.67;0.69
79685;SPS30;69153;47.918;11.428;2023-09-30T03:20:58;15.47;14.59;12.85;10.22;81.77;81.67;81.21;78.64;63.65;0.70
79685;SPS30;69153;47.918;11.428;2023-09-30T03:23:33;15.97;15.02;13.14;10.33;82.72;82.61;82.12;79.36;64.02;0.72
79685;SPS30;69153;47.918;11.428;2023-09-30T03:26:00;16.85;15.74;13.54;10.35;82.87;82.74;82.17;79.00;63.15;0.73
79685;SPS30;69153;47.918;11.428;2023-09-30T03:28:28;15.01;14.25;12.76;10.40;83.22;83.13;82.74;80.48;65.63;0.68
79685;SPS30;69153;47.918;11.428;2023-09-30T03:30:54;15.73;14.79;12.93;10.14;81.19;81.09;80.60;77.87;62.77;0.71
79685;SPS30;69153;47.918;11.428;2023-09-30T03:33:19;16.13;15.17;13.29;10.46;83.74;83.63;83.14;80.37;64.86;0.71
79685;SPS30;69153;47.918;11.428;2023-09-30T03:35:45;16.74;15.70;13.65;10.63;85.10;84.98;84.45;81.47;65.51;0.73
79685;SPS30;69153;47.918;11.428;2023-09-30T03:38:11;15.61;14.71;12.94;10.25;82.08;81.98;81.51;78.90;63.80;0.71
79685;SPS30;69153;47.918;11.428;2023-09-30T03:40:38;15.77;14.84;13.00;10.25;82.05;81.94;81.46;78.77;63.59;0.70
79685;SPS30;69153;47.918;11.428;2023-09-30T03:43:13;15.58;14.68;12.92;10.24;82.00;81.90;81.43;78.83;63.76;0.71
79685;SPS30;69153;47.918;11.428;2023-09-30T03:45:39;15.25;14.45;12.88;10.42;83.36;83.27;82.85;80.49;65.49;0.69
79685;SPS30;69153;47.918;11.428;2023-09-30T03:48:06;15.80;14.89;13.10;10.39;83.20;83.10;82.63;79.99;64.70;0.71
79685;SPS30;69153;47.918;11.428;2023-09-30T03:50:32;14.69;13.90;12.36;9.96;79.74;79.65;79.24;76.94;62.53;0.70
79685;SPS30;69153;47.918;11.428;2023-09-30T03:53:01;16.16;15.25;13.45;10.72;85.78;85.67;85.20;82.54;66.85;0.72
79685;SPS30;69153;47.918;11.428;2023-09-30T03:55:27;15.89;14.98;13.17;10.43;83.52;83.42;82.95;80.28;64.91;0.71
79685;SPS30;69153;47.918;11.428;2023-09-30T03:57:55;15.33;14.50;12.88;10.36;82.91;82.82;82.39;79.96;64.95;0.70
79685;SPS30;69153;47.918;11.428;2023-09-30T04:00:20;15.55;14.72;13.07;10.52;84.18;84.08;83.65;81.19;65.96;0.69
79685;SPS30;69153;47.918;11.428;2023-09-30T04:02:47;16.26;15.35;13.55;10.80;86.45;86.35;85.88;83.21;67.41;0.72
79685;SPS30;69153;47.918;11.428;2023-09-30T04:05:14;16.23;15.25;13.32;10.43;83.52;83.41;82.90;80.07;64.51;0.72
79685;SPS30;69153;47.918;11.428;2023-09-30T04:07:40;16.74;15.72;13.70;10.71;85.73;85.61;85.08;82.14;66.13;0.71
79685;SPS30;69153;47.918;11.428;2023-09-30T04:10:07;15.22;14.40;12.77;10.25;82.03;81.94;81.51;79.08;64.20;0.69
79685;SPS30;69153;47.918;11.428;2023-09-30T04:12:34;15.84;14.94;13.15;10.45;83.65;83.55;83.08;80.45;65.10;0.70
79685;SPS30;69153;47.918;11.428;2023-09-30T04:15:00;14.95;14.20;12.71;10.36;82.91;82.82;82.43;80.18;65.39;0.67
79685;SPS30;69153;47.918;11.428;2023-09-30T04:17:26;15.04;14.15;12.41;9.78;78.29;78.19;77.73;75.16;60.68;0.70
79685;SPS30;69153;47.918;11.428;2023-09-30T04:19:52;15.42;14.53;12.78;10.12;81.01;80.91;80.45;77.86;62.95;0.71
79685;SPS30;69153;47.918;11.428;2023-09-30T04:22:18;16.57;15.43;13.17;9.94;79.60;79.48;78.89;75.66;60.23;0.75
79685;SPS30;69153;47.918;11.428;2023-09-30T04:24:44;14.88;13.97;12.16;9.48;75.93;75.83;75.35;72.72;58.51;0.71
79685;SPS30;69153;47.918;11.428;2023-09-30T04:27:11;14.67;13.86;12.26;9.81;78.54;78.44;78.02;75.65;61.35;0.69
79685;SPS30;69153;47.918;11.428;2023-09-30T04:29:36;14.94;14.08;12.37;9.79;78.37;78.27;77.82;75.30;60.87;0.71
79685;SPS30;69153;47.918;11.428;2023-09-30T04:32:02;14.41;13.58;11.94;9.46;75.70;75.60;75.17;72.75;58.82;0.72
79685;SPS30;69153;47.918;11.428;2023-09-30T04:34:29;14.24;13.41;11.76;9.27;74.23;74.14;73.70;71.28;57.55;0.72
79685;SPS30;69153;47.918;11.428;2023-09-30T04:36:55;14.28;13.50;11.97;9.60;76.86;76.77;76.37;74.09;60.14;0.70
79685;SPS30;69153;47.918;11.428;2023-09-30T04:39:21;14.01;13.29;11.87;9.65;77.18;77.10;76.73;74.59;60.77;0.67
79685;SPS30;69153;47.918;11.428;2023-09-30T04:41:46;14.35;13.56;12.00;9.61;76.95;76.85;76.45;74.13;60.14;0.69
79685;SPS30;69153;47.918;11.428;2023-09-30T04:44:12;13.82;13.03;11.46;9.08;72.71;72.62;72.21;69.89;56.52;0.71
79685;SPS30;69153;47.918;11.428;2023-09-30T04:46:37;14.27;13.40;11.70;9.15;73.30;73.20;72.75;70.26;56.59;0.71
79685;SPS30;69153;47.918;11.428;2023-09-30T04:49:08;15.37;14.35;12.33;9.41;75.41;75.29;74.77;71.87;57.43;0.74
79685;SPS30;69153;47.918;11.428;2023-09-30T04:51:34;14.76;13.79;11.87;9.07;72.65;72.54;72.04;69.26;55.38;0.73
79685;SPS30;69153;47.918;11.428;2023-09-30T04:53:59;14.41;13.55;11.84;9.29;74.34;74.25;73.80;71.30;57.47;0.72
79685;SPS30;69153;47.918;11.428;2023-09-30T04:56:25;14.13;13.29;11.63;9.14;73.19;73.09;72.66;70.22;56.64;0.71
79685;SPS30;69153;47.918;11.428;2023-09-30T04:58:50;13.77;12.99;11.45;9.11;72.90;72.81;72.40;70.13;56.77;0.69
79685;SPS30;69153;47.918;11.428;2023-09-30T05:01:16;13.33;12.59;11.13;8.90;71.21;71.13;70.75;68.58;55.60;0.70
79685;SPS30;69153;47.918;11.428;2023-09-30T05:03:44;13.70;12.97;11.52;9.29;74.31;74.23;73.85;71.69;58.26;0.70
79685;SPS30;69153;47.918;11.428;2023-09-30T05:06:13;14.53;13.66;11.96;9.40;75.28;75.18;74.74;72.24;58.27;0.71
79685;SPS30;69153;47.918;11.428;2023-09-30T05:08:39;14.54;13.68;11.99;9.45;75.66;75.57;75.12;72.64;58.64;0.72
79685;SPS30;69153;47.918;11.428;2023-09-30T05:11:04;14.64;13.76;12.01;9.40;75.25;75.15;74.70;72.14;58.11;0.72
79685;SPS30;69153;47.918;11.428;2023-09-30T05:13:30;14.66;13.70;11.80;9.03;72.34;72.23;71.73;68.99;55.18;0.74
79685;SPS30;69153;47.918;11.428;2023-09-30T05:15:55;14.80;13.90;12.12;9.48;75.89;75.79;75.32;72.73;58.57;0.70
79685;SPS30;69153;47.918;11.428;2023-09-30T05:18:21;14.07;13.22;11.54;9.03;72.28;72.18;71.74;69.27;55.80;0.71
79685;SPS30;69153;47.918;11.428;2023-09-30T05:20:46;12.71;12.12;10.94;9.04;72.29;72.22;71.91;70.10;57.38;0.66
79685;SPS30;69153;47.918;11.428;2023-09-30T05:23:12;12.94;12.29;11.01;8.99;71.91;71.83;71.49;69.56;56.74;0.69
79685;SPS30;69153;47.918;11.428;2023-09-30T05:25:37;14.07;13.26;11.67;9.26;74.14;74.05;73.63;71.28;57.66;0.72
79685;SPS30;69153;47.918;11.428;2023-09-30T05:28:05;14.18;13.29;11.53;8.95;71.65;71.55;71.09;68.54;55.06;0.73
79685;SPS30;69153;47.918;11.428;2023-09-30T05:30:34;13.33;12.56;11.05;8.75;70.08;69.99;69.59;67.36;54.47;0.71
79685;SPS30;69153;47.918;11.428;2023-09-30T05:33:00;13.22;12.53;11.15;9.01;72.07;71.99;71.62;69.56;56.57;0.69
79685;SPS30;69153;47.918;11.428;2023-09-30T05:35:26;12.17;11.60;10.49;8.67;69.38;69.31;69.02;67.31;55.11;0.67
79685;SPS30;69153;47.918;11.428;2023-09-30T05:37:52;13.68;12.92;11.41;9.11;72.91;72.82;72.42;70.19;56.89;0.70
79685;SPS30;69153;47.918;11.428;2023-09-30T05:40:18;12.66;11.93;10.50;8.34;66.73;66.65;66.27;64.16;51.91;0.69
79685;SPS30;69153;47.918;11.428;2023-09-30T05:42:49;12.56;11.88;10.51;8.42;67.41;67.33;66.97;64.95;52.69;0.71
79685;SPS30;69153;47.918;11.428;2023-09-30T05:45:15;13.32;12.60;11.16;8.95;71.61;71.53;71.15;69.01;56.00;0.70
79685;SPS30;69153;47.918;11.428;2023-09-30T05:47:41;13.72;12.96;11.46;9.16;73.35;73.26;72.87;70.64;57.28;0.69
79685;SPS30;69153;47.918;11.428;2023-09-30T05:50:07;13.29;12.54;11.05;8.78;70.30;70.21;69.82;67.62;54.73;0.70
79685;SPS30;69153;47.918;11.428;2023-09-30T05:52:34;13.34;12.70;11.44;9.41;75.29;75.21;74.88;72.96;59.65;0.67
79685;SPS30;69153;47.918;11.428;2023-09-30T05:55:00;12.64;12.11;11.07;9.30;74.39;74.33;74.05;72.41;59.56;0.65
79685;SPS30;69153;47.918;11.428;2023-09-30T05:57:27;13.01;12.40;11.20;9.25;73.96;73.89;73.57;71.73;58.71;0.68
79685;SPS30;69153;47.918;11.428;2023-09-30T05:59:53;13.87;13.08;11.53;9.17;73.43;73.34;72.93;70.64;57.18;0.71
79685;SPS30;69153;47.918;11.428;2023-09-30T06:02:19;12.83;12.18;10.88;8.84;70.77;70.69;70.35;68.40;55.73;0.69
79685;SPS30;69153;47.918;11.428;2023-09-30T06:04:44;13.37;12.63;11.18;8.94;71.57;71.49;71.11;68.94;55.91;0.70
79685;SPS30;69153;47.918;11.428;2023-09-30T06:07:11;13.28;12.58;11.19;9.02;72.20;72.12;71.75;69.67;56.63;0.69
79685;SPS30;69153;47.918;11.428;2023-09-30T06:09:37;12.59;11.97;10.75;8.80;70.41;70.33;70.01;68.16;55.65;0.67
79685;SPS30;69153;47.918;11.428;2023-09-30T06:12:02;12.43;11.80;10.56;8.60;68.81;68.74;68.41;66.54;54.24;0.68
79685;SPS30;69153;47.918;11.428;2023-09-30T06:14:31;13.25;12.47;10.93;8.61;68.93;68.84;68.44;66.17;53.42;0.73
79685;SPS30;69153;47.918;11.428;2023-09-30T06:16:57;12.15;11.52;10.26;8.29;66.35;66.27;65.94;64.05;52.11;0.69
79685;SPS30;69153;47.918;11.428;2023-09-30T06:19:22;11.47;10.93;9.86;8.13;65.07;65.01;64.73;63.09;51.62;0.68
79685;SPS30;69153;47.918;11.428;2023-09-30T06:21:48;11.90;11.30;10.10;8.22;65.78;65.71;65.39;63.59;51.83;0.70
79685;SPS30;69153;47.918;11.428;2023-09-30T06:24:15;11.58;10.95;9.72;7.82;62.56;62.49;62.17;60.33;49.00;0.70
79685;SPS30;69153;47.918;11.428;2023-09-30T06:26:40;10.48;9.89;8.71;6.93;55.43;55.36;55.06;53.32;43.16;0.71
79685;SPS30;69153;47.918;11.428;2023-09-30T06:29:06;10.97;10.34;9.08;7.18;57.46;57.39;57.06;55.21;44.61;0.71
79685;SPS30;69153;47.918;11.428;2023-09-30T06:31:32;11.20;10.50;9.12;7.08;56.69;56.61;56.25;54.24;43.58;0.72
79685;SPS30;69153;47.918;11.428;2023-09-30T06:33:59;10.30;9.70;8.51;6.71;53.73;53.66;53.35;51.60;41.67;0.71
79685;SPS30;69153;47.918;11.428;2023-09-30T06:36:25;11.10;10.41;9.05;7.05;56.41;56.34;55.98;54.00;43.42;0.72
79685;SPS30;69153;47.918;11.428;2023-09-30T06:38:51;10.42;9.80;8.56;6.72;53.76;53.69;53.37;51.56;41.56;0.72
79685;SPS30;69153;47.918;11.428;2023-09-30T06:41:17;10.48;9.86;8.63;6.78;54.30;54.23;53.91;52.11;42.03;0.72
79685;SPS30;69153;47.918;11.428;2023-09-30T06:43:43;10.19;9.62;8.47;6.74;53.94;53.87;53.58;51.89;42.00;0.70
79685;SPS30;69153;47.918;11.428;2023-09-30T06:46:09;9.58;9.03;7.96;6.32;50.58;50.52;50.24;48.65;39.36;0.71
79685;SPS30;69153;47.918;11.428;2023-09-30T06:48:35;10.26;9.59;8.28;6.36;50.97;50.89;50.55;48.65;38.96;0.74
79685;SPS30;69153;47.918;11.428;2023-09-30T06:51:01;9.66;9.07;7.91;6.19;49.55;49.49;49.18;47.49;38.25;0.72
79685;SPS30;69153;47.918;11.428;2023-09-30T06:53:27;9.52;8.98;7.91;6.28;50.28;50.22;49.94;48.36;39.13;0.69
79685;SPS30;69153;47.918;11.428;2023-09-30T06:55:53;8.82;8.32;7.33;5.83;46.68;46.62;46.36;44.90;36.35;0.70
79685;SPS30;69153;47.918;11.428;2023-09-30T06:58:18;10.75;10.04;8.65;6.62;53.00;52.92;52.56;50.54;40.43;0.74
79685;SPS30;69153;47.918;11.428;2023-09-30T07:00:49;11.26;10.45;8.83;6.55;52.52;52.43;52.02;49.72;39.36;0.76
79685;SPS30;69153;47.918;11.428;2023-09-30T07:03:16;10.17;9.52;8.24;6.37;50.99;50.91;50.58;48.73;39.09;0.72
79685;SPS30;69153;47.918;11.428;2023-09-30T07:05:42;11.26;10.56;9.16;7.11;56.91;56.83;56.47;54.44;43.73;0.71
79685;SPS30;69153;47.918;11.428;2023-09-30T07:08:09;12.26;11.48;9.94;7.68;61.47;61.39;60.98;58.75;47.12;0.70
79685;SPS30;69153;47.918;11.428;2023-09-30T07:10:34;11.27;10.60;9.27;7.28;58.32;58.24;57.90;55.95;45.12;0.70
79685;SPS30;69153;47.918;11.428;2023-09-30T07:13:04;12.87;12.01;10.30;7.85;62.84;62.75;62.30;59.86;47.79;0.73
79685;SPS30;69153;47.918;11.428;2023-09-30T07:15:29;11.93;11.21;9.79;7.68;61.47;61.39;61.01;58.94;47.50;0.71
79685;SPS30;69153;47.918;11.428;2023-09-30T07:17:55;13.41;12.50;10.70;8.12;65.01;64.91;64.44;61.86;49.33;0.75
79685;SPS30;69153;47.918;11.428;2023-09-30T07:20:21;12.44;11.67;10.13;7.87;63.03;62.95;62.55;60.32;48.47;0.71
79685;SPS30;69153;47.918;11.428;2023-09-30T07:22:47;12.39;11.61;10.07;7.80;62.47;62.39;61.98;59.74;47.97;0.71
79685;SPS30;69153;47.918;11.428;2023-09-30T07:25:13;11.95;11.22;9.76;7.60;60.82;60.73;60.35;58.23;46.82;0.70
79685;SPS30;69153;47.918;11.428;2023-09-30T07:27:41;12.89;12.00;10.25;7.73;61.91;61.81;61.36;58.84;46.84;0.73
79685;SPS30;69153;47.918;11.428;2023-09-30T07:30:08;12.81;11.92;10.16;7.64;61.21;61.11;60.66;58.14;46.23;0.73
79685;SPS30;69153;47.918;11.428;2023-09-30T07:32:35;11.80;11.05;9.55;7.36;58.97;58.89;58.50;56.33;45.16;0.72
79685;SPS30;69153;47.918;11.428;2023-09-30T07:35:00;11.24;10.56;9.23;7.24;57.99;57.91;57.56;55.61;44.83;0.72
79685;SPS30;69153;47.918;11.428;2023-09-30T07:37:26;11.71;11.04;9.71;7.70;61.63;61.55;61.20;59.24;47.91;0.71
79685;SPS30;69153;47.918;11.428;2023-09-30T07:39:52;11.78;11.03;9.56;7.39;59.14;59.06;58.67;56.53;45.36;0.73
79685;SPS30;69153;47.918;11.428;2023-09-30T07:42:17;11.95;11.12;9.48;7.13;57.14;57.05;56.63;54.28;43.17;0.75
79685;SPS30;69153;47.918;11.428;2023-09-30T07:44:43;12.24;11.41;9.75;7.38;59.09;59.00;58.57;56.20;44.78;0.73
79685;SPS30;69153;47.918;11.428;2023-09-30T07:47:08;11.65;10.92;9.47;7.34;58.75;58.67;58.29;56.18;45.12;0.71
79685;SPS30;69153;47.918;11.428;2023-09-30T07:49:34;11.36;10.68;9.32;7.29;58.37;58.30;57.94;55.95;45.07;0.71
79685;SPS30;69153;47.918;11.428;2023-09-30T07:52:00;11.67;10.90;9.39;7.19;57.56;57.47;57.08;54.89;43.90;0.74
79685;SPS30;69153;47.918;11.428;2023-09-30T07:54:25;10.86;10.21;8.92;6.99;55.97;55.90;55.56;53.67;43.25;0.71
79685;SPS30;69153;47.918;11.428;2023-09-30T07:56:51;11.00;10.33;9.02;7.07;56.59;56.52;56.17;54.26;43.72;0.72
79685;SPS30;69153;47.918;11.428;2023-09-30T07:59:17;11.00;10.32;8.99;7.01;56.10;56.02;55.67;53.72;43.22;0.72
79685;SPS30;69153;47.918;11.428;2023-09-30T08:01:43;11.53;10.83;9.43;7.36;58.96;58.88;58.51;56.48;45.46;0.73
79685;SPS30;69153;47.918;11.428;2023-09-30T08:04:08;11.79;11.03;9.53;7.34;58.76;58.68;58.29;56.12;44.97;0.74
79685;SPS30;69153;47.918;11.428;2023-09-30T08:06:34;10.76;10.07;8.70;6.69;53.57;53.49;53.13;51.14;40.97;0.73
79685;SPS30;69153;47.918;11.428;2023-09-30T08:08:59;11.42;10.67;9.20;7.05;56.48;56.40;56.01;53.88;43.12;0.74
79685;SPS30;69153;47.918;11.428;2023-09-30T08:11:25;10.44;9.82;8.58;6.73;53.90;53.82;53.50;51.69;41.67;0.71
79685;SPS30;69153;47.918;11.428;2023-09-30T08:13:56;10.49;9.88;8.68;6.87;54.98;54.91;54.59;52.82;42.69;0.72
79685;SPS30;69153;47.918;11.428;2023-09-30T08:16:21;10.32;9.66;8.36;6.45;51.63;51.55;51.21;49.32;39.55;0.72
79685;SPS30;69153;47.918;11.428;2023-09-30T08:18:47;10.44;9.82;8.59;6.75;54.01;53.94;53.62;51.82;41.79;0.72
79685;SPS30;69153;47.918;11.428;2023-09-30T08:21:12;9.81;9.26;8.18;6.52;52.22;52.15;51.87;50.26;40.72;0.68
79685;SPS30;69153;47.918;11.428;2023-09-30T08:23:37;9.53;9.01;8.00;6.43;51.46;51.41;51.14;49.62;40.30;0.69
79685;SPS30;69153;47.918;11.428;2023-09-30T08:26:04;9.82;9.30;8.28;6.68;53.45;53.39;53.12;51.58;41.93;0.68
79685;SPS30;69153;47.918;11.428;2023-09-30T08:28:30;9.41;8.94;8.00;6.52;52.17;52.11;51.87;50.45;41.13;0.66
79685;SPS30;69153;47.918;11.428;2023-09-30T08:31:01;9.00;8.56;7.68;6.29;50.29;50.24;50.01;48.68;39.74;0.68
79685;SPS30;69153;47.918;11.428;2023-09-30T08:33:30;9.99;9.41;8.28;6.56;52.49;52.43;52.13;50.45;40.79;0.71
79685;SPS30;69153;47.918;11.428;2023-09-30T08:35:56;10.24;9.65;8.50;6.76;54.08;54.02;53.71;52.01;42.09;0.70
79685;SPS30;69153;47.918;11.428;2023-09-30T08:38:37;10.01;9.43;8.28;6.55;52.44;52.37;52.07;50.38;40.72;0.70
79685;SPS30;69153;47.918;11.428;2023-09-30T08:41:04;9.90;9.36;8.31;6.67;53.42;53.36;53.08;51.50;41.82;0.69
79685;SPS30;69153;47.918;11.428;2023-09-30T08:43:30;9.60;9.05;7.98;6.34;50.77;50.70;50.42;48.83;39.53;0.71
79685;SPS30;69153;47.918;11.428;2023-09-30T08:45:57;9.47;8.92;7.84;6.21;49.71;49.65;49.37;47.77;38.62;0.71
79685;SPS30;69153;47.918;11.428;2023-09-30T08:48:31;10.04;9.41;8.15;6.31;50.56;50.49;50.16;48.34;38.81;0.70